Big Bear Lake, CA

8:09 AM PDT on September 02, 2014 (GMT -0700)
Big Bear Mountain Cabin, Moonridge | Change Station
CLOSE
Current Station
Personal Weather Station
Location: Big Bear Lake, CA
Elevation: 7241 ft
Nearby Weather Stations

Elev 7241 ft 34.23 °N, 116.85 °W | Updated 14 minutes ago

Clear
Clear
62.4 °F
Feels Like 62.4 °F
N
1.7
Wind Variable Wind from South

Today
High -- | Low -- °F
--% Chance of Precip.
Yesterday
High -- | Low -- °F
Precip. -- in
6:21 AM 7:12 PM
First Quarter, 52% visible
Pressure 30.20 in
Visibility 10.0 miles
Clouds Clear
Dew Point 31 °F
Humidity 31%
Rainfall 0.00 in
Snow Depth Not available.
UV 1 out of 12
Pollen 7.00 out of 12
Air Quality Not available.
Flu Activity Not available.
METAR KL35 021455Z AUTO 00000KT 10SM CLR 11/02 A3020 RMK AO2

More Conditions Fewer Conditions

Pressure 30.20 in
Visibility 10.0 miles
Clouds Clear
Dew Point 31 °F
Humidity 31%
Rainfall 0.00 in
Snow Depth Not available.
UV 1 out of 12
Pollen 7.00 out of 12
Air Quality Not available.
Flu Activity Not available.
METAR KL35 021455Z AUTO 00000KT 10SM CLR 11/02 A3020 RMK AO2

More Conditions Fewer Conditions

10-Day Weather Forecast

Almanac

Astronomy

Sep. 02, 2014 Rise Set
Actual Time 6:21 AM PDT 7:12 PM PDT
Civil Twilight 5:56 AM PDT 7:37 PM PDT
Nautical Twilight 5:25 AM PDT 8:07 PM PDT
Astronomical Twilight 4:54 AM PDT 8:38 PM PDT
Moon 1:51 PM PDT No Moon Set
Length of Visible Light 13h 41m
Length of Day
12h 50m
Tomorrow will be 2m 3s shorter.
First Quarter, 52% of the Moon is Illuminated
Today
First Quarter
Sep 8
Full
Sep 15
Last Quarter
Sep 24
New
Oct 1
First Quarter

Today's Extremes

State Highs State Lows

Community

WunderPhotos

Upload Photos

1,749,688 photos uploaded!

WunderBlogs® & News

Nearby

Air Quality

  Air Quality AQ Index Pollutant
Tuesday Moderate
OZONE
Tuesday Good
PM10
Tuesday Good
CO
Tuesday Good
NO2

Snow Depth

Station Depth Elevation
Leavitt Lake 0 in 9400 ft
Leavitt Meadows 1 in 7200 ft
Sonora Pass 0 in 8800 ft
Summit Meadow 1 in 9122 ft
Monitor Pass 0 in 8350 ft

Earthquake Activity

City Distance Mag. Time & Date
Holtville, California 133 miles 2.5 5:43 PM PDT
2014-09-01
Holtville, California 135 miles 2.5 5:26 PM PDT
2014-09-01
Minimum magnitude displayed is 2.5.

Coastal Water Temperatures

Place Temperature
No Stations Reporting

Nearby Weather Stations